createdAt,value
2023-04-19T00:00:12.262Z,7.85
2023-04-19T00:02:41.554Z,8.23
2023-04-19T00:05:13.654Z,8.18
2023-04-19T00:07:41.388Z,8.85
2023-04-19T00:10:09.230Z,8.77
2023-04-19T00:12:36.658Z,8.40
2023-04-19T00:15:04.427Z,8.43
2023-04-19T00:17:31.870Z,9.45
2023-04-19T00:19:59.255Z,9.73
2023-04-19T00:22:29.208Z,8.40
2023-04-19T00:24:58.937Z,8.32
2023-04-19T00:27:26.546Z,8.40
2023-04-19T00:29:53.916Z,9.50
2023-04-19T00:32:21.245Z,8.52
2023-04-19T00:34:53.529Z,8.48
2023-04-19T00:37:21.064Z,9.18
2023-04-19T00:39:48.364Z,8.07
2023-04-19T00:42:17.979Z,8.82
2023-04-19T00:44:47.587Z,8.27
2023-04-19T00:47:15.061Z,8.32
2023-04-19T00:49:42.403Z,8.30
2023-04-19T00:52:12.930Z,8.68
2023-04-19T00:54:43.405Z,8.85
2023-04-19T00:57:13.184Z,8.90
2023-04-19T00:59:40.679Z,8.13
2023-04-19T01:02:09.145Z,8.98
2023-04-19T01:04:37.141Z,8.57
2023-04-19T01:07:04.823Z,8.80
2023-04-19T01:09:32.132Z,9.35
2023-04-19T01:12:02.090Z,9.18
2023-04-19T01:14:29.381Z,8.80
2023-04-19T01:16:57.785Z,8.70
2023-04-19T01:19:27.268Z,9.45
2023-04-19T01:21:56.405Z,9.50
2023-04-19T01:24:23.741Z,9.20
2023-04-19T01:26:51.017Z,8.95
2023-04-19T01:29:18.910Z,8.80
2023-04-19T01:31:51.348Z,9.20
2023-04-19T01:34:18.697Z,9.45
2023-04-19T01:36:46.312Z,9.07
2023-04-19T01:39:18.344Z,9.05
2023-04-19T01:41:45.638Z,10.07
2023-04-19T01:44:13.004Z,9.43
2023-04-19T01:46:42.755Z,9.23
2023-04-19T01:49:12.584Z,8.93
2023-04-19T01:51:40.468Z,8.82
2023-04-19T01:54:07.783Z,8.43
2023-04-19T01:56:35.126Z,8.35
2023-04-19T01:59:02.512Z,8.80
2023-04-19T02:01:30.581Z,8.80
2023-04-19T02:03:57.971Z,8.73
2023-04-19T02:06:26.952Z,9.48
2023-04-19T02:08:56.967Z,8.90
2023-04-19T02:11:24.229Z,8.20
2023-04-19T02:13:53.845Z,8.50
2023-04-19T02:16:21.171Z,8.43
2023-04-19T02:18:49.318Z,9.75
2023-04-19T02:21:16.674Z,9.00
2023-04-19T02:23:46.222Z,9.07
2023-04-19T02:26:15.887Z,9.25
2023-04-19T02:28:43.180Z,9.43
2023-04-19T02:31:10.495Z,8.80
2023-04-19T02:33:37.772Z,9.13
2023-04-19T02:36:05.328Z,9.48
2023-04-19T02:38:32.637Z,8.80
2023-04-19T02:41:04.353Z,8.80
2023-04-19T02:43:34.167Z,8.93
2023-04-19T02:46:02.139Z,9.32
2023-04-19T02:48:29.577Z,9.65
2023-04-19T02:50:56.953Z,9.57
2023-04-19T02:53:26.417Z,9.00
2023-04-19T02:55:53.754Z,8.63
2023-04-19T02:58:21.002Z,9.60
2023-04-19T03:00:48.417Z,10.20
2023-04-19T03:03:16.143Z,9.85
2023-04-19T03:05:43.558Z,9.60
2023-04-19T03:08:11.536Z,9.45
2023-04-19T03:10:38.884Z,9.40
2023-04-19T03:13:08.419Z,9.15
2023-04-19T03:15:35.668Z,9.13
2023-04-19T03:18:05.219Z,9.95
2023-04-19T03:20:34.890Z,9.38
2023-04-19T03:23:02.446Z,9.75
2023-04-19T03:25:29.852Z,9.70
2023-04-19T03:27:59.661Z,10.30
2023-04-19T03:30:26.911Z,10.20
2023-04-19T03:32:54.233Z,10.07
2023-04-19T03:35:22.454Z,10.15
2023-04-19T03:37:49.696Z,10.05
2023-04-19T03:40:18.313Z,11.45
2023-04-19T03:42:47.849Z,10.18
2023-04-19T03:45:15.126Z,9.98
2023-04-19T03:47:42.425Z,10.27
2023-04-19T03:50:10.045Z,10.02
2023-04-19T03:52:37.421Z,10.13
2023-04-19T03:55:07.314Z,9.90
2023-04-19T03:57:34.701Z,10.35
2023-04-19T04:00:01.954Z,11.48
2023-04-19T04:02:29.529Z,11.50
2023-04-19T04:04:56.985Z,10.57
2023-04-19T04:07:24.752Z,10.75
2023-04-19T04:09:52.083Z,10.93
2023-04-19T04:12:19.558Z,10.90
2023-04-19T04:14:46.762Z,11.00
2023-04-19T04:17:16.415Z,10.48
2023-04-19T04:19:46.028Z,10.65
2023-04-19T04:22:13.273Z,10.68
2023-04-19T04:24:41.917Z,11.40
2023-04-19T04:27:14.941Z,11.57
2023-04-19T04:29:43.922Z,11.27
2023-04-19T04:32:11.480Z,11.25
2023-04-19T04:34:39.564Z,11.38
2023-04-19T04:37:08.808Z,11.15
2023-04-19T04:39:39.385Z,11.75
2023-04-19T04:42:10.162Z,11.40
2023-04-19T04:44:38.962Z,11.17
2023-04-19T04:47:08.607Z,11.18
2023-04-19T04:49:36.407Z,11.10
2023-04-19T04:52:06.631Z,11.40
2023-04-19T04:54:36.364Z,11.82
2023-04-19T04:57:04.076Z,12.07
2023-04-19T04:59:31.611Z,11.23
2023-04-19T05:01:59.130Z,12.98
2023-04-19T05:04:26.696Z,12.68
2023-04-19T05:06:54.146Z,13.45
2023-04-19T05:09:23.902Z,12.82
2023-04-19T05:11:51.192Z,13.15
2023-04-19T05:14:18.466Z,12.60
2023-04-19T05:16:46.295Z,13.27
2023-04-19T05:19:13.638Z,13.05
2023-04-19T05:21:40.858Z,13.50
2023-04-19T05:24:10.044Z,13.75
2023-04-19T05:26:37.284Z,13.88
2023-04-19T05:29:04.543Z,14.15
2023-04-19T05:31:34.863Z,14.93
2023-04-19T05:34:04.381Z,15.88
2023-04-19T05:36:33.959Z,15.98
2023-04-19T05:39:01.428Z,15.68
2023-04-19T05:41:31.109Z,16.52
2023-04-19T05:43:58.408Z,15.10
2023-04-19T05:46:25.712Z,16.15
2023-04-19T05:48:52.974Z,16.13
2023-04-19T05:51:20.314Z,15.70
2023-04-19T05:53:47.625Z,15.55
2023-04-19T05:56:14.936Z,15.48
2023-04-19T05:58:45.109Z,15.45
2023-04-19T06:01:12.680Z,14.88
2023-04-19T06:03:40.276Z,15.38
2023-04-19T06:06:08.528Z,15.02
2023-04-19T06:08:36.111Z,16.05
2023-04-19T06:11:15.189Z,15.85
2023-04-19T06:13:50.941Z,14.98
2023-04-19T06:16:20.961Z,15.43
2023-04-19T06:18:48.322Z,15.10
2023-04-19T06:21:18.176Z,15.25
2023-04-19T06:23:49.013Z,14.93
2023-04-19T06:26:18.956Z,15.82
2023-04-19T06:28:46.296Z,16.42
2023-04-19T06:31:18.587Z,17.35
2023-04-19T06:33:46.836Z,17.10
2023-04-19T06:36:16.442Z,16.60
2023-04-19T06:38:44.710Z,16.63
2023-04-19T06:41:12.658Z,18.15
2023-04-19T06:43:42.924Z,16.70
2023-04-19T06:46:10.472Z,15.98
2023-04-19T06:48:38.407Z,16.23
2023-04-19T06:51:05.982Z,16.70
2023-04-19T06:53:33.348Z,16.77
2023-04-19T06:56:04.735Z,18.83
2023-04-19T06:58:34.480Z,16.92
2023-04-19T07:01:05.119Z,17.27
2023-04-19T07:03:36.393Z,17.33
2023-04-19T07:06:04.018Z,19.40
2023-04-19T07:08:48.263Z,17.60
2023-04-19T07:11:16.951Z,17.25
2023-04-19T07:13:46.681Z,17.02
2023-04-19T07:16:14.934Z,17.27
2023-04-19T07:18:42.441Z,16.38
2023-04-19T07:21:10.560Z,17.40
2023-04-19T07:23:40.484Z,17.15
2023-04-19T07:26:10.386Z,18.58
2023-04-19T07:28:39.746Z,18.60
2023-04-19T07:31:18.334Z,18.00
2023-04-19T07:33:47.357Z,19.30
2023-04-19T07:36:14.714Z,18.90
2023-04-19T07:38:42.047Z,18.13
2023-04-19T07:41:11.819Z,19.70
2023-04-19T07:43:39.393Z,19.02
2023-04-19T07:46:16.441Z,18.38
2023-04-19T07:48:43.791Z,19.00
2023-04-19T07:51:17.636Z,18.55
2023-04-19T07:53:47.748Z,19.30
2023-04-19T07:56:15.672Z,17.73
2023-04-19T07:58:43.886Z,19.05
2023-04-19T08:01:11.598Z,18.63
2023-04-19T08:03:39.108Z,18.98
2023-04-19T08:06:12.826Z,18.05
2023-04-19T08:08:40.148Z,18.23
2023-04-19T08:11:07.472Z,18.42
2023-04-19T08:13:34.935Z,16.88
2023-04-19T08:18:34.062Z,17.48
2023-04-19T08:21:01.434Z,17.17
2023-04-19T08:23:34.905Z,17.08
2023-04-19T08:26:08.841Z,16.55
2023-04-19T08:28:38.680Z,16.80
2023-04-19T08:31:08.930Z,17.80
2023-04-19T08:33:38.819Z,15.95
2023-04-19T08:36:07.192Z,15.60
2023-04-19T08:38:34.466Z,15.88
2023-04-19T08:41:01.843Z,16.67
2023-04-19T08:43:33.619Z,17.50
2023-04-19T08:46:04.758Z,18.05
2023-04-19T08:48:36.766Z,17.27
2023-04-19T08:51:05.966Z,16.60
2023-04-19T08:53:37.091Z,15.90
2023-04-19T08:56:17.897Z,17.30
2023-04-19T08:59:01.032Z,15.43
2023-04-19T09:01:44.758Z,15.32
2023-04-19T09:04:34.822Z,14.18
2023-04-19T09:07:02.059Z,14.38
2023-04-19T09:12:01.539Z,15.20
2023-04-19T09:14:31.534Z,15.40
2023-04-19T09:17:16.774Z,14.35
2023-04-19T09:19:48.430Z,15.48
2023-04-19T09:22:18.284Z,16.05
2023-04-19T09:25:27.715Z,14.55
2023-04-19T09:27:37.353Z,15.52
2023-04-19T09:30:17.516Z,13.63
2023-04-19T09:32:51.013Z,15.20
2023-04-19T09:35:18.424Z,14.77
2023-04-19T09:38:06.440Z,15.38
2023-04-19T09:40:35.021Z,13.60
2023-04-19T09:43:22.947Z,14.82
2023-04-19T09:45:53.324Z,13.90
2023-04-19T09:48:23.459Z,15.43
2023-04-19T09:51:05.743Z,14.93
2023-04-19T09:53:40.696Z,15.18
2023-04-19T09:56:12.905Z,15.20
2023-04-19T09:58:52.586Z,14.88
2023-04-19T10:01:29.797Z,17.35
2023-04-19T10:04:03.519Z,17.00
2023-04-19T10:06:58.217Z,15.65
2023-04-19T10:09:26.612Z,15.88
2023-04-19T10:12:03.735Z,16.27
2023-04-19T10:14:40.432Z,16.23
2023-04-19T10:17:07.756Z,15.40
2023-04-19T10:19:37.551Z,13.57
2023-04-19T10:22:07.852Z,10.20
2023-04-19T10:24:35.115Z,8.48
2023-04-19T10:27:14.864Z,6.55
2023-04-19T10:29:55.763Z,4.72
2023-04-19T10:32:25.027Z,4.15
2023-04-19T10:34:56.244Z,3.50
2023-04-19T10:37:26.020Z,3.42
2023-04-19T10:39:53.409Z,3.78
2023-04-19T10:42:20.715Z,3.22
2023-04-19T10:45:32.171Z,3.45
2023-04-19T10:48:04.834Z,4.25
2023-04-19T10:51:24.229Z,4.03
2023-04-19T10:54:05.087Z,4.40
2023-04-19T10:56:35.367Z,5.40
2023-04-19T10:59:08.510Z,4.50
2023-04-19T11:01:46.295Z,4.72
2023-04-19T11:04:21.501Z,3.60
2023-04-19T11:06:52.366Z,3.30
2023-04-19T11:09:34.738Z,3.20
2023-04-19T11:12:02.295Z,3.50
2023-04-19T11:14:33.165Z,2.30
2023-04-19T11:17:04.482Z,2.50
2023-04-19T11:19:31.792Z,2.70
2023-04-19T11:22:01.323Z,2.03
2023-04-19T11:24:31.045Z,2.38
2023-04-19T11:26:58.314Z,2.20
2023-04-19T11:29:25.642Z,2.20
2023-04-19T11:31:54.901Z,2.20
2023-04-19T11:34:27.286Z,2.70
2023-04-19T11:36:54.628Z,2.30
2023-04-19T11:39:24.551Z,3.20
2023-04-19T11:41:51.845Z,3.47
2023-04-19T11:44:20.907Z,3.63
2023-04-19T11:46:59.240Z,3.72
2023-04-19T11:49:36.344Z,3.90
2023-04-19T11:52:06.648Z,3.25
2023-04-19T11:54:34.182Z,3.72
2023-04-19T11:57:06.931Z,4.00
2023-04-19T11:59:36.224Z,3.95
2023-04-19T12:02:06.500Z,3.92
2023-04-19T12:04:34.173Z,3.60
2023-04-19T12:07:03.205Z,3.80
2023-04-19T12:09:32.859Z,3.70
2023-04-19T12:12:03.081Z,3.75
2023-04-19T12:14:32.311Z,3.55
2023-04-19T12:17:05.650Z,4.00
2023-04-19T12:19:44.578Z,3.97
2023-04-19T12:22:28.798Z,3.78
2023-04-19T12:24:56.086Z,4.20
2023-04-19T12:27:26.477Z,4.20
2023-04-19T12:29:54.006Z,4.40
2023-04-19T12:32:26.616Z,4.20
2023-04-19T12:34:56.551Z,4.55
2023-04-19T12:37:24.572Z,4.13
2023-04-19T12:39:51.833Z,4.35
2023-04-19T12:42:21.495Z,4.20
2023-04-19T12:44:51.272Z,4.70
2023-04-19T12:47:18.911Z,5.03
2023-04-19T12:49:46.309Z,5.00
2023-04-19T12:52:13.626Z,4.80
2023-04-19T12:54:41.479Z,4.50
2023-04-19T12:57:08.829Z,4.60
2023-04-19T12:59:36.281Z,5.32
2023-04-19T13:02:03.660Z,5.65
2023-04-19T13:04:31.240Z,4.90
2023-04-19T13:07:01.406Z,3.72
2023-04-19T13:09:29.083Z,4.20
2023-04-19T13:11:56.455Z,4.25
2023-04-19T13:14:24.447Z,4.28
2023-04-19T13:16:54.101Z,4.68
2023-04-19T13:19:21.688Z,4.28
2023-04-19T13:21:51.332Z,4.35
2023-04-19T13:24:18.882Z,4.43
2023-04-19T13:26:46.422Z,4.60
2023-04-19T13:29:13.908Z,5.32
2023-04-19T13:31:43.621Z,5.50
2023-04-19T13:34:11.208Z,5.30
2023-04-19T13:36:41.113Z,7.00
2023-04-19T13:39:10.900Z,11.10
2023-04-19T13:41:38.287Z,6.45
2023-04-19T13:44:07.855Z,5.15
2023-04-19T13:46:37.651Z,5.30
2023-04-19T13:49:05.446Z,4.35
2023-04-19T13:51:46.917Z,4.47
2023-04-19T13:54:19.614Z,3.67
2023-04-19T13:56:52.140Z,3.65
2023-04-19T13:59:20.873Z,3.85
2023-04-19T14:01:48.172Z,3.83
2023-04-19T14:04:16.012Z,3.40
2023-04-19T14:06:46.001Z,3.40
2023-04-19T14:09:15.709Z,3.58
2023-04-19T14:11:43.293Z,3.47
2023-04-19T14:14:18.079Z,3.70
2023-04-19T14:16:48.726Z,3.20
2023-04-19T14:19:16.006Z,3.50
2023-04-19T14:21:43.309Z,3.20
2023-04-19T14:24:10.516Z,3.58
2023-04-19T14:26:37.781Z,3.45
2023-04-19T14:29:06.142Z,3.90
2023-04-19T14:31:35.076Z,4.50
2023-04-19T14:34:04.938Z,4.13
2023-04-19T14:36:32.429Z,3.63
2023-04-19T14:38:59.750Z,3.58
2023-04-19T14:41:27.011Z,3.60
2023-04-19T14:43:56.162Z,3.80
2023-04-19T14:46:23.445Z,3.55
2023-04-19T14:48:50.864Z,3.67
2023-04-19T14:51:18.157Z,4.10
2023-04-19T14:53:45.588Z,4.28
2023-04-19T14:56:12.885Z,3.83
2023-04-19T14:58:40.420Z,4.05
2023-04-19T15:01:14.176Z,4.10
2023-04-19T15:03:44.464Z,4.00
2023-04-19T15:06:11.927Z,6.25
2023-04-19T15:08:39.258Z,5.55
2023-04-19T15:11:11.359Z,4.90
2023-04-19T15:13:38.620Z,4.30
2023-04-19T15:16:07.710Z,4.50
2023-04-19T15:18:37.953Z,3.85
2023-04-19T15:21:11.120Z,4.10
2023-04-19T15:23:38.334Z,4.13
2023-04-19T15:26:07.995Z,4.20
2023-04-19T15:28:36.212Z,3.90
2023-04-19T15:31:05.185Z,4.20
2023-04-19T15:33:33.165Z,4.28
2023-04-19T15:36:01.695Z,4.10
2023-04-19T15:38:31.222Z,3.90
2023-04-19T15:40:59.430Z,4.28
2023-04-19T15:43:31.611Z,3.95
2023-04-19T15:45:59.133Z,4.63
2023-04-19T15:48:26.875Z,4.65
2023-04-19T15:50:54.192Z,5.50
2023-04-19T15:53:21.470Z,4.78
2023-04-19T15:55:48.829Z,4.32
2023-04-19T15:58:16.154Z,4.93
2023-04-19T16:00:43.520Z,5.28
2023-04-19T16:03:12.528Z,5.53
2023-04-19T16:05:40.236Z,4.97
2023-04-19T16:08:11.791Z,5.35
2023-04-19T16:10:39.388Z,5.22
2023-04-19T16:13:07.157Z,5.18
2023-04-19T16:15:34.419Z,5.68
2023-04-19T16:18:01.734Z,5.03
2023-04-19T16:20:29.162Z,4.95
2023-04-19T16:23:02.769Z,4.60
2023-04-19T16:25:31.127Z,4.68
2023-04-19T16:27:58.736Z,4.97
2023-04-19T16:30:27.002Z,4.78
2023-04-19T16:32:55.386Z,4.63
2023-04-19T16:35:23.703Z,4.32
2023-04-19T16:37:51.308Z,4.72
2023-04-19T16:40:21.050Z,4.20
2023-04-19T16:42:50.648Z,4.47
2023-04-19T16:45:20.097Z,5.10
2023-04-19T16:47:49.959Z,4.60
2023-04-19T16:50:17.267Z,4.75
2023-04-19T16:52:44.510Z,5.20
2023-04-19T16:55:11.854Z,5.20
2023-04-19T16:57:39.100Z,4.28
2023-04-19T17:00:07.044Z,4.30
2023-04-19T17:02:34.506Z,4.30
2023-04-19T17:05:02.268Z,5.25
2023-04-19T17:07:31.943Z,5.00
2023-04-19T17:09:59.192Z,5.03
2023-04-19T17:12:26.431Z,5.55
2023-04-19T17:14:56.261Z,5.50
2023-04-19T17:17:24.517Z,5.97
2023-04-19T17:19:56.030Z,5.72
2023-04-19T17:22:28.500Z,5.65
2023-04-19T17:24:57.383Z,5.53
2023-04-19T17:27:24.996Z,5.43
2023-04-19T17:29:52.265Z,5.43
2023-04-19T17:32:19.603Z,5.72
2023-04-19T17:34:46.834Z,5.75
2023-04-19T17:37:14.143Z,6.03
2023-04-19T17:39:41.437Z,5.72
2023-04-19T17:42:08.738Z,5.88
2023-04-19T17:44:36.651Z,5.55
2023-04-19T17:47:06.100Z,5.97
2023-04-19T17:49:33.627Z,4.95
2023-04-19T17:52:00.881Z,5.55
2023-04-19T17:54:30.667Z,5.30
2023-04-19T17:56:59.462Z,5.47
2023-04-19T17:59:26.766Z,5.22
2023-04-19T18:02:01.385Z,5.00
2023-04-19T18:04:31.091Z,5.40
2023-04-19T18:06:58.491Z,5.38
2023-04-19T18:09:25.806Z,5.43
2023-04-19T18:11:53.212Z,5.85
2023-04-19T18:14:20.489Z,5.32
2023-04-19T18:16:47.911Z,5.03
2023-04-19T18:19:15.600Z,5.43
2023-04-19T18:21:47.319Z,5.68
2023-04-19T18:24:15.449Z,5.95
2023-04-19T18:26:43.135Z,5.35
2023-04-19T18:29:16.229Z,8.00
2023-04-19T18:31:46.445Z,5.93
2023-04-19T18:34:13.920Z,6.18
2023-04-19T18:36:43.741Z,5.55
2023-04-19T18:39:13.985Z,5.13
2023-04-19T18:41:41.469Z,5.30
2023-04-19T18:44:39.152Z,5.93
2023-04-19T18:49:28.001Z,4.82
2023-04-19T18:51:57.474Z,5.00
2023-04-19T18:54:24.869Z,5.15
2023-04-19T18:59:25.486Z,5.18
2023-04-19T19:01:53.567Z,5.60
2023-04-19T19:06:54.742Z,5.10
2023-04-19T19:09:25.525Z,5.35
2023-04-19T19:11:56.923Z,5.47
2023-04-19T19:14:26.644Z,5.38
2023-04-19T19:16:57.368Z,4.75
2023-04-19T19:19:24.746Z,4.60
2023-04-19T19:21:54.428Z,5.68
2023-04-19T19:24:21.677Z,5.05
2023-04-19T19:26:49.048Z,4.82
2023-04-19T19:29:17.174Z,5.28
2023-04-19T19:31:44.565Z,4.93
2023-04-19T19:34:25.756Z,7.88
2023-04-19T19:36:58.588Z,9.50
2023-04-19T19:39:28.006Z,9.45
2023-04-19T19:42:05.953Z,8.65
2023-04-19T19:44:36.522Z,7.50
2023-04-19T19:47:10.331Z,6.47
2023-04-19T19:52:10.953Z,9.23
2023-04-19T19:54:38.228Z,11.60
2023-04-19T19:58:07.153Z,11.48
2023-04-19T20:00:18.041Z,9.95
2023-04-19T20:02:54.606Z,8.73
2023-04-19T20:05:26.433Z,7.57
2023-04-19T20:08:06.161Z,7.65
2023-04-19T20:10:33.599Z,6.50
2023-04-19T20:13:01.603Z,6.65
2023-04-19T20:15:30.183Z,6.97
2023-04-19T20:17:57.622Z,6.60
2023-04-19T20:20:24.960Z,6.20
2023-04-19T20:22:52.418Z,6.85
2023-04-19T20:25:22.074Z,6.38
2023-04-19T20:27:51.832Z,7.05
2023-04-19T20:30:19.182Z,7.43
2023-04-19T20:32:50.456Z,8.43
2023-04-19T20:35:18.240Z,7.80
2023-04-19T20:37:47.222Z,7.05
2023-04-19T20:40:16.183Z,7.22
2023-04-19T20:42:46.894Z,6.72
2023-04-19T20:45:14.520Z,7.10
2023-04-19T20:47:42.825Z,6.97
2023-04-19T20:50:10.926Z,7.15
2023-04-19T20:52:38.380Z,6.95
2023-04-19T20:55:11.171Z,6.93
2023-04-19T20:57:38.456Z,6.65
2023-04-19T21:00:09.853Z,7.40
2023-04-19T21:02:37.302Z,7.28
2023-04-19T21:05:07.377Z,6.88
2023-04-19T21:07:34.696Z,7.70
2023-04-19T21:10:01.995Z,7.22
2023-04-19T21:12:29.323Z,7.32
2023-04-19T21:14:56.535Z,7.30
2023-04-19T21:17:26.244Z,7.40
2023-04-19T21:19:53.580Z,10.48
2023-04-19T21:22:21.019Z,8.70
2023-04-19T21:24:48.302Z,8.95
2023-04-19T21:27:18.115Z,10.02
2023-04-19T21:29:47.877Z,9.50
2023-04-19T21:32:15.332Z,8.25
2023-04-19T21:34:46.101Z,8.55
2023-04-19T21:37:16.452Z,7.77
2023-04-19T21:39:46.181Z,7.60
2023-04-19T21:42:13.613Z,8.13
2023-04-19T21:44:41.063Z,8.65
2023-04-19T21:47:09.789Z,8.27
2023-04-19T21:49:39.574Z,8.48
2023-04-19T21:52:07.735Z,8.63
2023-04-19T21:54:35.223Z,8.95
2023-04-19T21:57:02.921Z,8.52
2023-04-19T21:59:33.111Z,9.15
2023-04-19T22:02:01.897Z,8.85
2023-04-19T22:04:32.595Z,8.70
2023-04-19T22:07:03.085Z,8.82
2023-04-19T22:09:31.049Z,8.73
2023-04-19T22:12:01.207Z,8.25
2023-04-19T22:14:28.566Z,8.35
2023-04-19T22:16:56.538Z,8.90
2023-04-19T22:19:24.801Z,8.63
2023-04-19T22:21:53.523Z,9.10
2023-04-19T22:24:23.806Z,8.98
2023-04-19T22:26:53.682Z,9.88
2023-04-19T22:29:21.036Z,8.60
2023-04-19T22:31:48.487Z,9.10
2023-04-19T22:34:16.093Z,8.63
2023-04-19T22:36:43.371Z,8.60
2023-04-19T22:39:13.874Z,9.27
2023-04-19T22:41:43.385Z,9.63
2023-04-19T22:44:10.748Z,9.57
2023-04-19T22:46:38.116Z,9.23
2023-04-19T22:49:05.663Z,9.48
2023-04-19T22:51:36.771Z,9.13
2023-04-19T22:54:06.700Z,9.07
2023-04-19T22:56:34.056Z,9.88
2023-04-19T22:59:01.373Z,10.20
2023-04-19T23:01:33.767Z,10.10
2023-04-19T23:04:01.101Z,10.25
2023-04-19T23:06:29.080Z,9.18
2023-04-19T23:09:00.616Z,9.23
2023-04-19T23:11:32.234Z,9.90
2023-04-19T23:14:01.988Z,9.68
2023-04-19T23:16:29.230Z,9.90
2023-04-19T23:19:00.638Z,9.98
2023-04-19T23:21:30.020Z,10.63
2023-04-19T23:23:58.201Z,10.48
2023-04-19T23:26:26.072Z,10.20
2023-04-19T23:28:53.383Z,10.13
2023-04-19T23:31:20.743Z,10.98
2023-04-19T23:33:50.900Z,9.88
2023-04-19T23:36:18.123Z,10.02
2023-04-19T23:38:45.657Z,9.98
2023-04-19T23:41:17.539Z,10.35
2023-04-19T23:43:48.350Z,10.20
2023-04-19T23:46:15.738Z,9.67
2023-04-19T23:48:43.143Z,10.15
2023-04-19T23:51:12.541Z,10.68
2023-04-19T23:53:42.273Z,9.93
2023-04-19T23:56:12.424Z,10.25
2023-04-19T23:58:41.925Z,10.40
